<?xml version="1.0" encoding="UTF-8" standalone="no" ?>
<gpx xmlns="http://www.topografix.com/GPX/1/1" xmlns:xsi="http://www.w3.org/2001/XMLSchema-instance" xsi:schemaLocation="http://www.topografix.com/GPX/1/1 http://www.topografix.com/GPX/1/1/gpx.xsd" version="1.1" creator="VisuGPX - https://www.visugpx.com">
  <metadata>
    <name>Vacances 2021</name>
  </metadata>
  <trk>
    <name><![CDATA[Journal actif: 2021-07-21 17:10]]></name>
    <trkseg>
      <trkpt lat="49.34697" lon="6.41323">
        <ele>243.35</ele>
        <time>2021-07-21T19:10:33Z</time>
      </trkpt>
      <trkpt lat="49.34689" lon="6.41295">
        <ele>242.87</ele>
        <time>2021-07-21T19:10:43Z</time>
      </trkpt>
      <trkpt lat="49.34675" lon="6.41248">
        <ele>242.87</ele>
        <time>2021-07-21T19:10:48Z</time>
      </trkpt>
      <trkpt lat="49.34671" lon="6.41235">
        <ele>243.83</ele>
        <time>2021-07-21T19:10:49Z</time>
      </trkpt>
      <trkpt lat="49.34669" lon="6.41221">
        <ele>244.79</ele>
        <time>2021-07-21T19:10:50Z</time>
      </trkpt>
      <trkpt lat="49.3467" lon="6.41146">
        <ele>245.75</ele>
        <time>2021-07-21T19:10:55Z</time>
      </trkpt>
      <trkpt lat="49.3467" lon="6.4113">
        <ele>245.75</ele>
        <time>2021-07-21T19:10:56Z</time>
      </trkpt>
      <trkpt lat="49.34669" lon="6.41113">
        <ele>245.27</ele>
        <time>2021-07-21T19:10:57Z</time>
      </trkpt>
      <trkpt lat="49.34666" lon="6.41098">
        <ele>244.79</ele>
        <time>2021-07-21T19:10:58Z</time>
      </trkpt>
      <trkpt lat="49.34664" lon="6.41083">
        <ele>245.27</ele>
        <time>2021-07-21T19:10:59Z</time>
      </trkpt>
      <trkpt lat="49.34661" lon="6.41068">
        <ele>245.27</ele>
        <time>2021-07-21T19:11:00Z</time>
      </trkpt>
      <trkpt lat="49.3466" lon="6.41054">
        <ele>245.75</ele>
        <time>2021-07-21T19:11:01Z</time>
      </trkpt>
      <trkpt lat="49.34663" lon="6.41039">
        <ele>246.23</ele>
        <time>2021-07-21T19:11:02Z</time>
      </trkpt>
      <trkpt lat="49.34665" lon="6.41022">
        <ele>247.2</ele>
        <time>2021-07-21T19:11:03Z</time>
      </trkpt>
      <trkpt lat="49.34701" lon="6.40808">
        <ele>252</ele>
        <time>2021-07-21T19:11:14Z</time>
      </trkpt>
      <trkpt lat="49.34713" lon="6.40575">
        <ele>256.81</ele>
        <time>2021-07-21T19:11:24Z</time>
      </trkpt>
      <trkpt lat="49.34669" lon="6.40278">
        <ele>263.54</ele>
        <time>2021-07-21T19:11:35Z</time>
      </trkpt>
      <trkpt lat="49.346" lon="6.40003">
        <ele>264.5</ele>
        <time>2021-07-21T19:11:47Z</time>
      </trkpt>
      <trkpt lat="49.34512" lon="6.39753">
        <ele>264.98</ele>
        <time>2021-07-21T19:11:58Z</time>
      </trkpt>
      <trkpt lat="49.3438" lon="6.39414">
        <ele>268.35</ele>
        <time>2021-07-21T19:12:13Z</time>
      </trkpt>
      <trkpt lat="49.34343" lon="6.39146">
        <ele>275.56</ele>
        <time>2021-07-21T19:12:23Z</time>
      </trkpt>
      <trkpt lat="49.34296" lon="6.38764">
        <ele>286.61</ele>
        <time>2021-07-21T19:12:38Z</time>
      </trkpt>
      <trkpt lat="49.3429" lon="6.38722">
        <ele>288.53</ele>
        <time>2021-07-21T19:12:40Z</time>
      </trkpt>
      <trkpt lat="49.34286" lon="6.38705">
        <ele>289.49</ele>
        <time>2021-07-21T19:12:41Z</time>
      </trkpt>
      <trkpt lat="49.3428" lon="6.3869">
        <ele>289.49</ele>
        <time>2021-07-21T19:12:42Z</time>
      </trkpt>
      <trkpt lat="49.34274" lon="6.38678">
        <ele>288.53</ele>
        <time>2021-07-21T19:12:43Z</time>
      </trkpt>
      <trkpt lat="49.34266" lon="6.38668">
        <ele>287.57</ele>
        <time>2021-07-21T19:12:44Z</time>
      </trkpt>
      <trkpt lat="49.34248" lon="6.38646">
        <ele>285.17</ele>
        <time>2021-07-21T19:12:46Z</time>
      </trkpt>
      <trkpt lat="49.34237" lon="6.38624">
        <ele>285.17</ele>
        <time>2021-07-21T19:12:47Z</time>
      </trkpt>
      <trkpt lat="49.34237" lon="6.38624">
        <ele>285.65</ele>
        <time>2021-07-21T19:12:48Z</time>
      </trkpt>
      <trkpt lat="49.34232" lon="6.38611">
        <ele>284.21</ele>
        <time>2021-07-21T19:12:49Z</time>
      </trkpt>
      <trkpt lat="49.3423" lon="6.3859">
        <ele>284.21</ele>
        <time>2021-07-21T19:12:50Z</time>
      </trkpt>
      <trkpt lat="49.34228" lon="6.3857">
        <ele>282.77</ele>
        <time>2021-07-21T19:12:51Z</time>
      </trkpt>
      <trkpt lat="49.34211" lon="6.38434">
        <ele>271.23</ele>
        <time>2021-07-21T19:12:57Z</time>
      </trkpt>
      <trkpt lat="49.34205" lon="6.38411">
        <ele>269.79</ele>
        <time>2021-07-21T19:12:58Z</time>
      </trkpt>
      <trkpt lat="49.34141" lon="6.38201">
        <ele>260.17</ele>
        <time>2021-07-21T19:13:06Z</time>
      </trkpt>
      <trkpt lat="49.34135" lon="6.38178">
        <ele>260.65</ele>
        <time>2021-07-21T19:13:07Z</time>
      </trkpt>
      <trkpt lat="49.34122" lon="6.38118">
        <ele>256.81</ele>
        <time>2021-07-21T19:13:10Z</time>
      </trkpt>
      <trkpt lat="49.34115" lon="6.38101">
        <ele>255.85</ele>
        <time>2021-07-21T19:13:11Z</time>
      </trkpt>
      <trkpt lat="49.34107" lon="6.38088">
        <ele>255.37</ele>
        <time>2021-07-21T19:13:12Z</time>
      </trkpt>
      <trkpt lat="49.341" lon="6.38077">
        <ele>253.93</ele>
        <time>2021-07-21T19:13:13Z</time>
      </trkpt>
      <trkpt lat="49.34089" lon="6.3807">
        <ele>253.44</ele>
        <time>2021-07-21T19:13:14Z</time>
      </trkpt>
      <trkpt lat="49.34079" lon="6.38063">
        <ele>253.44</ele>
        <time>2021-07-21T19:13:15Z</time>
      </trkpt>
      <trkpt lat="49.34067" lon="6.38064">
        <ele>252.96</ele>
        <time>2021-07-21T19:13:16Z</time>
      </trkpt>
      <trkpt lat="49.34056" lon="6.38064">
        <ele>252.96</ele>
        <time>2021-07-21T19:13:17Z</time>
      </trkpt>
      <trkpt lat="49.34035" lon="6.38065">
        <ele>251.52</ele>
        <time>2021-07-21T19:13:18Z</time>
      </trkpt>
      <trkpt lat="49.34024" lon="6.38065">
        <ele>250.56</ele>
        <time>2021-07-21T19:13:19Z</time>
      </trkpt>
      <trkpt lat="49.34024" lon="6.38065">
        <ele>250.56</ele>
        <time>2021-07-21T19:13:20Z</time>
      </trkpt>
      <trkpt lat="49.34018" lon="6.38062">
        <ele>250.56</ele>
        <time>2021-07-21T19:13:21Z</time>
      </trkpt>
      <trkpt lat="49.34011" lon="6.38056">
        <ele>250.08</ele>
        <time>2021-07-21T19:13:22Z</time>
      </trkpt>
      <trkpt lat="49.34005" lon="6.38045">
        <ele>249.6</ele>
        <time>2021-07-21T19:13:23Z</time>
      </trkpt>
      <trkpt lat="49.34" lon="6.38034">
        <ele>249.6</ele>
        <time>2021-07-21T19:13:24Z</time>
      </trkpt>
      <trkpt lat="49.33942" lon="6.37875">
        <ele>253.93</ele>
        <time>2021-07-21T19:13:37Z</time>
      </trkpt>
      <trkpt lat="49.33913" lon="6.378">
        <ele>249.12</ele>
        <time>2021-07-21T19:13:45Z</time>
      </trkpt>
      <trkpt lat="49.33893" lon="6.37738">
        <ele>244.31</ele>
        <time>2021-07-21T19:13:52Z</time>
      </trkpt>
      <trkpt lat="49.3389" lon="6.37726">
        <ele>243.35</ele>
        <time>2021-07-21T19:13:53Z</time>
      </trkpt>
      <trkpt lat="49.33889" lon="6.37712">
        <ele>241.91</ele>
        <time>2021-07-21T19:13:54Z</time>
      </trkpt>
      <trkpt lat="49.33885" lon="6.37608">
        <ele>235.66</ele>
        <time>2021-07-21T19:14:00Z</time>
      </trkpt>
      <trkpt lat="49.33881" lon="6.37595">
        <ele>235.18</ele>
        <time>2021-07-21T19:14:01Z</time>
      </trkpt>
      <trkpt lat="49.33878" lon="6.37581">
        <ele>234.22</ele>
        <time>2021-07-21T19:14:02Z</time>
      </trkpt>
      <trkpt lat="49.33861" lon="6.37518">
        <ele>232.78</ele>
        <time>2021-07-21T19:14:08Z</time>
      </trkpt>
      <trkpt lat="49.33842" lon="6.37437">
        <ele>229.41</ele>
        <time>2021-07-21T19:14:16Z</time>
      </trkpt>
      <trkpt lat="49.33804" lon="6.37274">
        <ele>226.05</ele>
        <time>2021-07-21T19:14:25Z</time>
      </trkpt>
      <trkpt lat="49.33726" lon="6.37063">
        <ele>223.16</ele>
        <time>2021-07-21T19:14:36Z</time>
      </trkpt>
      <trkpt lat="49.33672" lon="6.36949">
        <ele>219.8</ele>
        <time>2021-07-21T19:14:42Z</time>
      </trkpt>
      <trkpt lat="49.33665" lon="6.36927">
        <ele>219.32</ele>
        <time>2021-07-21T19:14:43Z</time>
      </trkpt>
      <trkpt lat="49.33608" lon="6.36665">
        <ele>218.36</ele>
        <time>2021-07-21T19:14:54Z</time>
      </trkpt>
      <trkpt lat="49.33543" lon="6.3637">
        <ele>217.4</ele>
        <time>2021-07-21T19:15:07Z</time>
      </trkpt>
      <trkpt lat="49.33525" lon="6.36296">
        <ele>214.99</ele>
        <time>2021-07-21T19:15:12Z</time>
      </trkpt>
      <trkpt lat="49.33523" lon="6.36287">
        <ele>215.47</ele>
        <time>2021-07-21T19:15:13Z</time>
      </trkpt>
      <trkpt lat="49.33522" lon="6.3628">
        <ele>215.47</ele>
        <time>2021-07-21T19:15:14Z</time>
      </trkpt>
      <trkpt lat="49.33531" lon="6.36281">
        <ele>215.95</ele>
        <time>2021-07-21T19:15:15Z</time>
      </trkpt>
      <trkpt lat="49.33533" lon="6.36277">
        <ele>215.95</ele>
        <time>2021-07-21T19:15:16Z</time>
      </trkpt>
      <trkpt lat="49.33534" lon="6.36273">
        <ele>215.95</ele>
        <time>2021-07-21T19:15:17Z</time>
      </trkpt>
      <trkpt lat="49.33541" lon="6.36259">
        <ele>215.95</ele>
        <time>2021-07-21T19:15:25Z</time>
      </trkpt>
      <trkpt lat="49.33545" lon="6.36255">
        <ele>215.95</ele>
        <time>2021-07-21T19:15:26Z</time>
      </trkpt>
      <trkpt lat="49.33545" lon="6.36255">
        <ele>215.47</ele>
        <time>2021-07-21T19:15:27Z</time>
      </trkpt>
      <trkpt lat="49.33549" lon="6.36254">
        <ele>214.99</ele>
        <time>2021-07-21T19:15:28Z</time>
      </trkpt>
      <trkpt lat="49.33555" lon="6.36252">
        <ele>214.03</ele>
        <time>2021-07-21T19:15:29Z</time>
      </trkpt>
      <trkpt lat="49.33598" lon="6.36237">
        <ele>212.11</ele>
        <time>2021-07-21T19:15:35Z</time>
      </trkpt>
      <trkpt lat="49.33607" lon="6.36234">
        <ele>212.11</ele>
        <time>2021-07-21T19:15:36Z</time>
      </trkpt>
      <trkpt lat="49.33616" lon="6.36235">
        <ele>212.11</ele>
        <time>2021-07-21T19:15:37Z</time>
      </trkpt>
      <trkpt lat="49.33625" lon="6.36238">
        <ele>212.59</ele>
        <time>2021-07-21T19:15:38Z</time>
      </trkpt>
      <trkpt lat="49.33633" lon="6.36243">
        <ele>212.59</ele>
        <time>2021-07-21T19:15:39Z</time>
      </trkpt>
      <trkpt lat="49.33641" lon="6.3625">
        <ele>212.59</ele>
        <time>2021-07-21T19:15:40Z</time>
      </trkpt>
      <trkpt lat="49.33778" lon="6.36381">
        <ele>220.76</ele>
        <time>2021-07-21T19:15:55Z</time>
      </trkpt>
      <trkpt lat="49.33921" lon="6.36519">
        <ele>236.14</ele>
        <time>2021-07-21T19:16:10Z</time>
      </trkpt>
      <trkpt lat="49.33961" lon="6.36558">
        <ele>241.91</ele>
        <time>2021-07-21T19:16:14Z</time>
      </trkpt>
      <trkpt lat="49.3397" lon="6.36563">
        <ele>243.35</ele>
        <time>2021-07-21T19:16:15Z</time>
      </trkpt>
      <trkpt lat="49.33978" lon="6.36568">
        <ele>242.87</ele>
        <time>2021-07-21T19:16:16Z</time>
      </trkpt>
      <trkpt lat="49.33987" lon="6.36572">
        <ele>242.87</ele>
        <time>2021-07-21T19:16:17Z</time>
      </trkpt>
      <trkpt lat="49.33994" lon="6.36574">
        <ele>242.87</ele>
        <time>2021-07-21T19:16:18Z</time>
      </trkpt>
      <trkpt lat="49.34002" lon="6.36575">
        <ele>242.87</ele>
        <time>2021-07-21T19:16:19Z</time>
      </trkpt>
      <trkpt lat="49.34067" lon="6.36564">
        <ele>246.23</ele>
        <time>2021-07-21T19:16:31Z</time>
      </trkpt>
      <trkpt lat="49.34092" lon="6.3656">
        <ele>249.6</ele>
        <time>2021-07-21T19:16:43Z</time>
      </trkpt>
      <trkpt lat="49.34092" lon="6.3656">
        <ele>249.12</ele>
        <time>2021-07-21T19:16:49Z</time>
      </trkpt>
      <trkpt lat="49.34095" lon="6.36559">
        <ele>249.12</ele>
        <time>2021-07-21T19:16:50Z</time>
      </trkpt>
    </trkseg>
  </trk>
</gpx>